Airfield :







YOU CAN JOIN US ON...

 
LOGIN :

Register | Disclaimer

   EN    FR    IT 

 









Legend :    VFR   Marginal VFR   IFR   Intensive IFR   Very Intensive IFR
Visi :
Ceiling :
>= 8 km
>= 3000ft
5 to 8 km
1000 to 3000 ft
1500m to 5 km
500 to 1000 ft
800 to 1500m
200 to 500 ft
< 800m
< 200 ft
Symbols :   Thunderstorms  Fog  Heavy snow  Heavy precipitations  Wind > 20 kt







- Airport Elevation : 108 ft
- IATA code : YAY


CYAY - St Anthony

CURRENT METAR :
  • 210700Z AUTO 13011KT 9SM OVC010 09/07 A2968 RMK SLP053

EXPIRED METARs :
  • 210600Z AUTO 12009KT 9SM OVC010 09/07 A2966 RMK SLP048
  • 210500Z AUTO 11009KT 9SM OVC010 09/07 A2968 RMK SLP052

TAF TAF CYAY
Valid from the 21 at 02:00 until the 21 at 14:00 UTC


210138Z 2102/2114 13010KT P6SM OVC010
TEMPO 2102/2106 5SM BR OVC007
PROB30 2104/2106 OVC003
FM210600 14010KT 2SM -DZ BR OVC005
TEMPO 2106/2112 6SM BR OVC010
PROB40 2106/2112 OVC003
FM211200 13012KT P6SM OVC010 RMK FCST BASED ON AUTO OBS. NXT FCST BY 210800Z
CZQX FIR / North America



MET'MAP, your aeronautical weather chart ! - Copyright ORBIFLY December 2007 - Disclaimer

ORBIFLY MET'MAP TEAM :

Programming & Development : Alexandra Zaïnal
Concept & Development : Baudouin d'Aumeries
Co-Development & Prog : Marc-Olivier Méhu
Technical & hardware support : Manuel Goepfert

Contact : metmap@orbifly.com




SOURCES & CREDITS :

   NOAA